createdAt,value
2017-05-27T00:00:42.844Z,16.52
2017-05-27T00:01:52.056Z,16.57
2017-05-27T00:03:01.003Z,16.58
2017-05-27T00:04:10.218Z,16.66
2017-05-27T00:05:20.088Z,16.58
2017-05-27T00:06:29.310Z,16.64
2017-05-27T00:07:38.206Z,16.66
2017-05-27T00:08:48.075Z,16.6
2017-05-27T00:09:57.627Z,16.56
2017-05-27T00:11:06.851Z,16.56
2017-05-27T00:12:15.739Z,16.49
2017-05-27T00:13:24.962Z,16.61
2017-05-27T00:14:34.006Z,16.49
2017-05-27T00:15:43.550Z,16.58
2017-05-27T00:16:52.443Z,16.52
2017-05-27T00:18:01.662Z,16.49
2017-05-27T00:19:10.878Z,16.45
2017-05-27T00:20:19.991Z,16.5
2017-05-27T00:21:29.210Z,16.53
2017-05-27T00:22:38.760Z,16.48
2017-05-27T00:23:48.307Z,16.42
2017-05-27T00:24:57.864Z,16.45
2017-05-27T00:26:07.557Z,16.43
2017-05-27T00:27:16.783Z,16.39
2017-05-27T00:28:26.330Z,16.46
2017-05-27T00:29:35.556Z,16.45
2017-05-27T00:30:44.775Z,16.35
2017-05-27T00:31:54.291Z,16.38
2017-05-27T00:33:03.184Z,16.33
2017-05-27T00:34:12.740Z,16.35
2017-05-27T00:35:21.963Z,16.33
2017-05-27T00:36:31.506Z,16.3
2017-05-27T00:37:41.027Z,16.3
2017-05-27T00:38:50.246Z,16.33
2017-05-27T00:40:00.116Z,16.35
2017-05-27T00:41:09.340Z,16.34
2017-05-27T00:42:18.559Z,16.27
2017-05-27T00:43:27.603Z,16.31
2017-05-27T00:44:36.556Z,16.3
2017-05-27T00:45:46.098Z,16.31
2017-05-27T00:46:54.992Z,16.28
2017-05-27T00:48:04.224Z,16.31
2017-05-27T00:49:14.244Z,16.28
2017-05-27T00:50:23.462Z,16.24
2017-05-27T00:51:32.682Z,16.28
2017-05-27T00:52:41.903Z,16.25
2017-05-27T00:53:51.123Z,16.23
2017-05-27T00:55:00.649Z,16.23
2017-05-27T00:56:09.867Z,16.11
2017-05-27T00:57:19.141Z,16.17
2017-05-27T00:58:29.015Z,16.24
2017-05-27T00:59:38.238Z,16.21
2017-05-27T01:00:47.453Z,16.21
2017-05-27T01:01:56.355Z,16.2
2017-05-27T01:03:05.897Z,16.15
2017-05-27T01:04:14.787Z,16.11
2017-05-27T01:05:23.681Z,16.09
2017-05-27T01:06:32.671Z,16.11
2017-05-27T01:07:41.565Z,16.11
2017-05-27T01:08:51.115Z,15.97
2017-05-27T01:10:00.353Z,16.08
2017-05-27T01:11:09.247Z,16.07
2017-05-27T01:12:18.293Z,16.02
2017-05-27T01:13:27.519Z,16.04
2017-05-27T01:14:37.064Z,15.96
2017-05-27T01:15:45.955Z,15.97
2017-05-27T01:16:54.851Z,16.01
2017-05-27T01:18:04.402Z,16
2017-05-27T01:19:13.298Z,15.9
2017-05-27T01:20:22.519Z,15.96
2017-05-27T01:21:32.058Z,15.9
2017-05-27T01:22:41.272Z,15.87
2017-05-27T01:23:50.216Z,16.02
2017-05-27T01:24:59.108Z,15.93
2017-05-27T01:26:08.325Z,16.01
2017-05-27T01:27:17.870Z,15.94
2017-05-27T01:28:27.412Z,16.01
2017-05-27T01:29:36.776Z,15.89
2017-05-27T01:30:45.668Z,15.9
2017-05-27T01:31:54.889Z,15.89
2017-05-27T01:33:04.111Z,15.89
2017-05-27T01:34:13.001Z,15.87
2017-05-27T01:35:23.030Z,15.89
2017-05-27T01:36:32.570Z,15.89
2017-05-27T01:37:42.767Z,15.92
2017-05-27T01:38:51.988Z,15.78
2017-05-27T01:40:01.205Z,15.78
2017-05-27T01:41:10.472Z,15.76
2017-05-27T01:42:19.365Z,15.75
2017-05-27T01:43:28.580Z,15.78
2017-05-27T01:44:38.131Z,15.76
2017-05-27T01:45:47.360Z,15.75
2017-05-27T01:46:56.350Z,15.75
2017-05-27T01:48:05.242Z,15.82
2017-05-27T01:49:14.788Z,15.82
2017-05-27T01:50:23.678Z,15.76
2017-05-27T01:51:32.903Z,15.75
2017-05-27T01:52:41.896Z,15.71
2017-05-27T01:53:51.762Z,15.8
2017-05-27T01:55:00.982Z,15.72
2017-05-27T01:56:09.892Z,15.72
2017-05-27T01:57:18.781Z,15.68
2017-05-27T01:58:27.672Z,15.69
2017-05-27T01:59:36.888Z,15.69
2017-05-27T02:00:46.106Z,15.64
2017-05-27T02:01:55.364Z,15.62
2017-05-27T02:03:04.583Z,15.59
2017-05-27T02:04:13.798Z,15.54
2017-05-27T02:05:23.015Z,15.57
2017-05-27T02:06:31.910Z,15.57
2017-05-27T02:07:41.130Z,15.54
2017-05-27T02:08:50.026Z,15.57
2017-05-27T02:09:59.349Z,15.57
2017-05-27T02:11:08.891Z,15.53
2017-05-27T02:12:17.780Z,15.53
2017-05-27T02:13:27.343Z,15.53
2017-05-27T02:14:36.561Z,15.54
2017-05-27T02:15:45.503Z,15.47
2017-05-27T02:16:54.396Z,15.5
2017-05-27T02:18:03.293Z,15.51
2017-05-27T02:19:12.516Z,15.5
2017-05-27T02:20:21.733Z,15.41
2017-05-27T02:21:30.724Z,15.44
2017-05-27T02:22:39.611Z,15.41
2017-05-27T02:23:48.509Z,15.39
2017-05-27T02:24:57.411Z,15.41
2017-05-27T02:26:06.957Z,15.41
2017-05-27T02:27:16.003Z,15.34
2017-05-27T02:28:25.228Z,15.44
2017-05-27T02:29:34.445Z,15.36
2017-05-27T02:30:43.986Z,15.32
2017-05-27T02:31:53.205Z,15.25
2017-05-27T02:33:02.102Z,15.21
2017-05-27T02:34:10.992Z,15.28
2017-05-27T02:35:20.226Z,15.29
2017-05-27T02:36:29.113Z,15.35
2017-05-27T02:37:38.332Z,15.27
2017-05-27T02:38:47.699Z,15.25
2017-05-27T02:39:56.587Z,15.35
2017-05-27T02:41:05.806Z,15.21
2017-05-27T02:42:15.021Z,15.28
2017-05-27T02:43:23.914Z,15.27
2017-05-27T02:44:33.287Z,15.21
2017-05-27T02:45:42.512Z,15.27
2017-05-27T02:46:51.403Z,15.25
2017-05-27T02:48:00.290Z,15.29
2017-05-27T02:49:09.850Z,15.25
2017-05-27T02:50:19.546Z,15.28
2017-05-27T02:51:28.767Z,15.29
2017-05-27T02:52:37.662Z,15.29
2017-05-27T02:53:46.879Z,15.29
2017-05-27T02:54:55.769Z,15.2
2017-05-27T02:56:05.019Z,15.31
2017-05-27T02:57:13.908Z,15.23
2017-05-27T02:58:23.120Z,15.23
2017-05-27T02:59:32.337Z,15.25
2017-05-27T03:00:41.230Z,15.14
2017-05-27T03:01:50.372Z,15.2
2017-05-27T03:02:59.278Z,15.11
2017-05-27T03:04:08.495Z,15.14
2017-05-27T03:05:17.721Z,15.11
2017-05-27T03:06:26.962Z,15.14
2017-05-27T03:07:35.906Z,15.11
2017-05-27T03:08:45.449Z,15.07
2017-05-27T03:09:54.666Z,15.09
2017-05-27T03:11:03.884Z,15.09
2017-05-27T03:12:12.800Z,15.14
2017-05-27T03:13:21.845Z,15.01
2017-05-27T03:14:31.065Z,15.11
2017-05-27T03:15:40.605Z,15.14
2017-05-27T03:16:50.147Z,14.99
2017-05-27T03:17:59.704Z,14.96
2017-05-27T03:19:09.222Z,14.98
2017-05-27T03:20:18.443Z,14.99
2017-05-27T03:21:27.661Z,14.98
2017-05-27T03:22:36.557Z,14.88
2017-05-27T03:23:45.452Z,14.88
2017-05-27T03:24:54.723Z,14.92
2017-05-27T03:26:03.628Z,14.94
2017-05-27T03:27:12.861Z,14.94
2017-05-27T03:28:21.753Z,14.92
2017-05-27T03:29:31.056Z,14.81
2017-05-27T03:30:40.382Z,14.92
2017-05-27T03:31:49.938Z,14.84
2017-05-27T03:32:59.171Z,14.89
2017-05-27T03:34:08.067Z,14.88
2017-05-27T03:35:17.639Z,14.89
2017-05-27T03:36:26.864Z,14.95
2017-05-27T03:37:36.086Z,14.83
2017-05-27T03:38:45.629Z,14.78
2017-05-27T03:39:54.849Z,14.8
2017-05-27T03:41:04.722Z,14.83
2017-05-27T03:42:14.038Z,14.86
2017-05-27T03:43:23.306Z,14.84
2017-05-27T03:44:32.851Z,14.83
2017-05-27T03:45:42.392Z,14.81
2017-05-27T03:46:51.284Z,14.86
2017-05-27T03:48:00.176Z,14.83
2017-05-27T03:49:09.395Z,14.88
2017-05-27T03:50:18.288Z,14.81
2017-05-27T03:51:27.223Z,14.77
2017-05-27T03:52:36.442Z,14.86
2017-05-27T03:53:45.983Z,14.88
2017-05-27T03:54:55.526Z,14.84
2017-05-27T03:56:04.743Z,14.91
2017-05-27T03:57:13.963Z,14.86
2017-05-27T03:58:22.854Z,14.95
2017-05-27T03:59:32.275Z,14.86
2017-05-27T04:00:41.492Z,14.89
2017-05-27T04:01:51.042Z,14.92
2017-05-27T04:03:00.588Z,14.86
2017-05-27T04:04:09.505Z,14.88
2017-05-27T04:05:18.867Z,14.88
2017-05-27T04:06:27.763Z,14.88
2017-05-27T04:07:36.979Z,14.88
2017-05-27T04:08:45.871Z,14.99
2017-05-27T04:09:54.765Z,14.95
2017-05-27T04:11:04.145Z,15.01
2017-05-27T04:12:13.365Z,14.98
2017-05-27T04:13:22.581Z,15.02
2017-05-27T04:14:31.478Z,14.95
2017-05-27T04:15:41.019Z,14.96
2017-05-27T04:16:50.059Z,14.98
2017-05-27T04:17:59.610Z,15.06
2017-05-27T04:19:08.827Z,15.14
2017-05-27T04:20:18.043Z,15.11
2017-05-27T04:21:26.942Z,15.13
2017-05-27T04:22:36.312Z,15.11
2017-05-27T04:23:45.201Z,15.11
2017-05-27T04:24:54.097Z,15.13
2017-05-27T04:26:03.317Z,15.11
2017-05-27T04:27:12.209Z,15.14
2017-05-27T04:28:21.248Z,15.11
2017-05-27T04:29:30.470Z,15.17
2017-05-27T04:30:39.361Z,15.25
2017-05-27T04:31:48.580Z,15.31
2017-05-27T04:32:57.798Z,15.25
2017-05-27T04:34:07.342Z,15.23
2017-05-27T04:35:16.889Z,15.28
2017-05-27T04:36:26.109Z,15.31
2017-05-27T04:37:35.010Z,15.28
2017-05-27T04:38:43.925Z,15.28
2017-05-27T04:39:53.624Z,15.29
2017-05-27T04:41:02.516Z,15.29
2017-05-27T04:42:11.732Z,15.31
2017-05-27T04:43:20.624Z,15.28
2017-05-27T04:44:30.171Z,15.25
2017-05-27T04:45:39.214Z,15.34
2017-05-27T04:46:48.110Z,15.43
2017-05-27T04:47:57.001Z,15.39
2017-05-27T04:49:05.899Z,15.39
2017-05-27T04:50:14.796Z,15.38
2017-05-27T04:51:23.894Z,15.44
2017-05-27T04:52:32.790Z,15.46
2017-05-27T04:53:41.684Z,15.5
2017-05-27T04:54:51.237Z,15.59
2017-05-27T04:56:00.128Z,15.56
2017-05-27T04:57:09.349Z,15.59
2017-05-27T04:58:18.890Z,15.56
2017-05-27T04:59:28.440Z,15.53
2017-05-27T05:00:37.335Z,15.56
2017-05-27T05:01:46.549Z,15.56
2017-05-27T05:02:55.978Z,15.59
2017-05-27T05:04:04.870Z,15.65
2017-05-27T05:05:14.087Z,15.54
2017-05-27T05:06:23.308Z,15.56
2017-05-27T05:07:32.202Z,15.54
2017-05-27T05:08:41.469Z,15.65
2017-05-27T05:09:50.689Z,15.59
2017-05-27T05:11:00.230Z,15.64
2017-05-27T05:12:09.777Z,15.6
2017-05-27T05:13:18.670Z,15.68
2017-05-27T05:14:27.720Z,15.64
2017-05-27T05:15:37.607Z,15.65
2017-05-27T05:16:47.152Z,15.75
2017-05-27T05:17:56.368Z,15.75
2017-05-27T05:19:05.273Z,15.82
2017-05-27T05:20:14.920Z,15.83
2017-05-27T05:21:24.462Z,15.87
2017-05-27T05:22:33.354Z,15.82
2017-05-27T05:24:14.627Z,15.87
2017-05-27T05:25:24.423Z,15.87
2017-05-27T05:26:33.317Z,15.96
2017-05-27T05:27:42.216Z,15.92
2017-05-27T05:28:51.759Z,15.9
2017-05-27T05:30:00.658Z,15.97
2017-05-27T05:31:10.027Z,15.92
2017-05-27T05:32:19.249Z,15.96
2017-05-27T05:33:28.481Z,15.97
2017-05-27T05:34:37.703Z,15.96
2017-05-27T05:35:47.573Z,16.05
2017-05-27T05:36:57.096Z,16.04
2017-05-27T05:38:05.997Z,16.07
2017-05-27T05:39:15.219Z,16.17
2017-05-27T05:40:24.762Z,16.09
2017-05-27T05:41:33.651Z,16.14
2017-05-27T05:42:43.127Z,16.11
2017-05-27T05:43:52.675Z,16.25
2017-05-27T05:45:01.899Z,16.34
2017-05-27T05:46:10.792Z,16.27
2017-05-27T05:47:20.008Z,16.38
2017-05-27T05:48:30.045Z,16.35
2017-05-27T05:49:38.937Z,16.31
2017-05-27T05:50:48.482Z,16.35
2017-05-27T05:51:57.375Z,16.42
2017-05-27T05:53:06.273Z,16.39
2017-05-27T05:54:15.322Z,16.43
2017-05-27T05:55:24.866Z,16.5
2017-05-27T05:56:34.086Z,16.49
2017-05-27T05:57:43.304Z,16.48
2017-05-27T05:58:52.852Z,16.57
2017-05-27T06:00:02.226Z,16.61
2017-05-27T06:01:11.445Z,16.63
2017-05-27T06:02:20.670Z,16.68
2017-05-27T06:03:30.217Z,16.73
2017-05-27T06:04:39.767Z,16.76
2017-05-27T06:05:49.367Z,16.82
2017-05-27T06:06:58.916Z,16.82
2017-05-27T06:08:07.810Z,16.85
2017-05-27T06:09:17.032Z,16.93
2017-05-27T06:10:25.927Z,16.89
2017-05-27T06:11:34.971Z,16.94
2017-05-27T06:12:44.196Z,17
2017-05-27T06:13:53.416Z,17.03
2017-05-27T06:15:02.639Z,16.98
2017-05-27T06:16:11.858Z,17.04
2017-05-27T06:17:21.225Z,17.14
2017-05-27T06:18:30.449Z,17.11
2017-05-27T06:19:39.348Z,17.06
2017-05-27T06:20:48.575Z,17.03
2017-05-27T06:21:57.475Z,17.23
2017-05-27T06:23:07.019Z,17.19
2017-05-27T06:24:16.565Z,17.34
2017-05-27T06:25:25.465Z,17.43
2017-05-27T06:26:34.678Z,17.43
2017-05-27T06:27:43.572Z,17.52
2017-05-27T06:28:52.849Z,17.59
2017-05-27T06:30:02.392Z,17.58
2017-05-27T06:31:11.286Z,17.59
2017-05-27T06:32:20.559Z,17.63
2017-05-27T06:33:29.786Z,17.63
2017-05-27T06:34:39.445Z,17.71
2017-05-27T06:35:48.998Z,17.66
2017-05-27T06:36:57.892Z,17.75
2017-05-27T06:38:07.470Z,17.78
2017-05-27T06:39:17.343Z,17.82
2017-05-27T06:40:26.339Z,17.77
2017-05-27T06:41:35.238Z,17.89
2017-05-27T06:42:44.136Z,17.97
2017-05-27T06:43:53.692Z,17.99
2017-05-27T06:45:03.237Z,18.03
2017-05-27T06:46:12.286Z,18.07
2017-05-27T06:47:21.505Z,18.21
2017-05-27T06:48:30.726Z,18.21
2017-05-27T06:49:39.629Z,18.17
2017-05-27T06:50:49.175Z,18.27
2017-05-27T06:51:58.728Z,18.25
2017-05-27T06:53:07.954Z,18.2
2017-05-27T06:54:17.176Z,18.25
2017-05-27T06:55:26.070Z,18.32
2017-05-27T06:56:34.972Z,18.35
2017-05-27T06:57:44.673Z,18.39
2017-05-27T06:58:53.899Z,18.51
2017-05-27T07:00:03.127Z,18.51
2017-05-27T07:01:12.024Z,18.55
2017-05-27T07:02:21.248Z,18.39
2017-05-27T07:03:30.623Z,18.57
2017-05-27T07:04:39.522Z,18.62
2017-05-27T07:05:49.390Z,18.67
2017-05-27T07:06:58.284Z,18.67
2017-05-27T07:08:07.184Z,18.84
2017-05-27T07:09:16.554Z,18.84
2017-05-27T07:10:25.794Z,18.84
2017-05-27T07:11:34.689Z,18.82
2017-05-27T07:12:43.594Z,18.81
2017-05-27T07:13:53.463Z,18.98
2017-05-27T07:15:02.562Z,18.92
2017-05-27T07:16:11.462Z,19.02
2017-05-27T07:17:20.684Z,19.07
2017-05-27T07:18:29.909Z,19.06
2017-05-27T07:19:38.806Z,19.06
2017-05-27T07:20:48.281Z,19.11
2017-05-27T07:21:57.506Z,19.18
2017-05-27T07:23:07.057Z,19.31
2017-05-27T07:24:16.008Z,19.31
2017-05-27T07:25:24.905Z,19.4
2017-05-27T07:26:33.851Z,19.41
2017-05-27T07:27:43.398Z,19.44
2017-05-27T07:28:52.297Z,19.5
2017-05-27T07:30:01.857Z,19.5
2017-05-27T07:31:11.403Z,19.51
2017-05-27T07:32:20.779Z,19.61
2017-05-27T07:33:30.325Z,19.59
2017-05-27T07:34:39.550Z,19.59
2017-05-27T07:35:49.101Z,19.62
2017-05-27T07:36:58.320Z,19.63
2017-05-27T07:38:07.220Z,19.73
2017-05-27T07:39:16.441Z,19.78
2017-05-27T07:40:25.668Z,19.84
2017-05-27T07:41:34.886Z,19.96
2017-05-27T07:42:44.117Z,19.92
2017-05-27T07:43:53.339Z,19.94
2017-05-27T07:45:02.237Z,19.96
2017-05-27T07:46:11.130Z,20.06
2017-05-27T07:47:20.354Z,20.02
2017-05-27T07:48:29.903Z,20.17
2017-05-27T07:49:38.950Z,20.26
2017-05-27T07:50:48.172Z,20.26
2017-05-27T07:51:57.394Z,20.23
2017-05-27T07:53:06.613Z,20.24
2017-05-27T07:54:15.837Z,20.2
2017-05-27T07:55:25.690Z,20.33
2017-05-27T07:56:34.591Z,20.28
2017-05-27T07:57:43.813Z,20.36
2017-05-27T07:58:53.039Z,20.47
2017-05-27T08:00:01.943Z,20.52
2017-05-27T08:01:10.989Z,20.58
2017-05-27T08:02:19.884Z,20.5
2017-05-27T08:03:29.119Z,20.58
2017-05-27T08:04:38.345Z,20.72
2017-05-27T08:05:47.239Z,20.73
2017-05-27T08:06:56.195Z,20.74
2017-05-27T08:08:05.742Z,20.74
2017-05-27T08:09:14.642Z,20.79
2017-05-27T08:10:23.542Z,20.82
2017-05-27T08:11:32.437Z,20.77
2017-05-27T08:12:41.385Z,20.94
2017-05-27T08:13:50.286Z,21.07
2017-05-27T08:14:59.511Z,21.06
2017-05-27T08:16:08.408Z,20.99
2017-05-27T08:17:17.306Z,20.98
2017-05-27T08:18:26.203Z,21.07
2017-05-27T08:19:36.403Z,21.14
2017-05-27T08:20:45.623Z,21.06
2017-05-27T08:21:54.521Z,21.16
2017-05-27T08:23:03.748Z,21.24
2017-05-27T08:24:13.370Z,21.32
2017-05-27T08:25:22.596Z,21.29
2017-05-27T08:26:32.140Z,21.37
2017-05-27T08:27:41.689Z,21.46
2017-05-27T08:28:50.918Z,21.38
2017-05-27T08:30:00.288Z,21.49
2017-05-27T08:31:09.209Z,21.52
2017-05-27T08:32:18.110Z,21.64
2017-05-27T08:33:27.671Z,21.61
2017-05-27T08:34:37.224Z,21.62
2017-05-27T08:35:46.775Z,21.68
2017-05-27T08:36:55.734Z,21.71
2017-05-27T08:38:04.631Z,21.71
2017-05-27T08:39:13.854Z,21.84
2017-05-27T08:40:23.139Z,21.83
2017-05-27T08:41:32.703Z,21.86
2017-05-27T08:42:42.575Z,21.84
2017-05-27T08:43:51.472Z,21.98
2017-05-27T08:45:00.695Z,22.21
2017-05-27T08:46:09.594Z,22.2
2017-05-27T08:47:18.826Z,22.36
2017-05-27T08:48:28.371Z,22.33
2017-05-27T08:49:37.926Z,22.42
2017-05-27T08:50:46.825Z,22.55
2017-05-27T08:51:56.094Z,22.54
2017-05-27T08:53:05.274Z,22.42
2017-05-27T08:54:14.279Z,22.33
2017-05-27T08:55:23.555Z,22.39
2017-05-27T08:56:32.783Z,22.6
2017-05-27T08:57:42.010Z,22.61
2017-05-27T08:58:51.236Z,22.58
2017-05-27T09:00:00.142Z,22.57
2017-05-27T09:01:09.288Z,22.6
2017-05-27T09:02:19.159Z,22.64
2017-05-27T09:03:28.379Z,22.6
2017-05-27T09:04:37.279Z,22.79
2017-05-27T09:05:46.176Z,22.86
2017-05-27T09:06:55.726Z,22.94
2017-05-27T09:08:04.983Z,22.9
2017-05-27T09:09:14.218Z,23.07
2017-05-27T09:10:23.457Z,23.13
2017-05-27T09:11:32.767Z,23.22
2017-05-27T09:12:41.821Z,23.36
2017-05-27T09:13:51.070Z,23.36
2017-05-27T09:15:00.294Z,23.33
2017-05-27T09:16:09.522Z,23.32
2017-05-27T09:17:18.437Z,23.33
2017-05-27T09:18:27.773Z,23.23
2017-05-27T09:19:37.334Z,23.22
2017-05-27T09:20:46.239Z,23.23
2017-05-27T09:21:56.125Z,23.23
2017-05-27T09:23:05.349Z,23.27
2017-05-27T09:24:14.249Z,23.53
2017-05-27T09:25:23.803Z,23.48
2017-05-27T09:26:32.767Z,23.58
2017-05-27T09:27:41.663Z,23.6
2017-05-27T09:28:50.888Z,23.68
2017-05-27T09:30:00.113Z,23.75
2017-05-27T09:31:09.338Z,23.73
2017-05-27T09:32:18.569Z,23.73
2017-05-27T09:33:27.795Z,23.9
2017-05-27T09:34:36.797Z,23.84
2017-05-27T09:35:46.194Z,23.9
2017-05-27T09:36:55.434Z,23.91
2017-05-27T09:38:04.335Z,23.97
2017-05-27T09:39:13.239Z,24
2017-05-27T09:40:22.471Z,24.18
2017-05-27T09:41:31.532Z,24.24
2017-05-27T09:42:41.086Z,24.13
2017-05-27T09:43:50.651Z,24.06
2017-05-27T09:45:00.547Z,24.15
2017-05-27T09:46:09.476Z,24.16
2017-05-27T09:47:18.678Z,24.21
2017-05-27T09:48:27.909Z,24.05
2017-05-27T09:49:36.811Z,24.16
2017-05-27T09:50:45.706Z,24.28
2017-05-27T09:51:54.619Z,24.42
2017-05-27T09:53:03.743Z,24.35
2017-05-27T09:54:13.297Z,24.3
2017-05-27T09:55:22.195Z,24.32
2017-05-27T09:56:31.114Z,24.27
2017-05-27T09:57:40.344Z,24.16
2017-05-27T09:58:49.414Z,24.42
2017-05-27T09:59:58.664Z,24.49
2017-05-27T10:01:07.617Z,24.57
2017-05-27T10:02:16.542Z,24.78
2017-05-27T10:03:25.452Z,24.58
2017-05-27T10:04:34.373Z,24.68
2017-05-27T10:05:43.301Z,24.78
2017-05-27T10:06:52.226Z,24.71
2017-05-27T10:08:01.130Z,24.84
2017-05-27T10:09:10.095Z,24.93
2017-05-27T10:10:19.062Z,24.76
2017-05-27T10:11:28.629Z,24.78
2017-05-27T10:12:37.526Z,24.83
2017-05-27T10:13:46.448Z,24.8
2017-05-27T10:14:56.041Z,24.85
2017-05-27T10:16:05.004Z,24.87
2017-05-27T10:17:13.972Z,24.98
2017-05-27T10:18:22.897Z,25.1
2017-05-27T10:19:32.122Z,25.23
2017-05-27T10:20:41.024Z,25.05
2017-05-27T10:21:50.085Z,25.08
2017-05-27T10:22:59.016Z,25.18
2017-05-27T10:24:07.915Z,25.18
2017-05-27T10:25:16.821Z,25.23
2017-05-27T10:26:26.064Z,25.3
2017-05-27T10:27:35.114Z,25.36
2017-05-27T10:28:44.015Z,25.32
2017-05-27T10:29:53.279Z,25.3
2017-05-27T10:31:02.502Z,25.33
2017-05-27T10:32:11.743Z,25.3
2017-05-27T10:33:20.750Z,25.33
2017-05-27T10:34:29.977Z,25.43
2017-05-27T10:35:38.881Z,25.51
2017-05-27T10:36:47.783Z,25.43
2017-05-27T10:37:57.013Z,25.54
2017-05-27T10:39:06.059Z,25.64
2017-05-27T10:40:15.289Z,25.6
2017-05-27T10:41:24.190Z,25.5
2017-05-27T10:42:33.091Z,25.54
2017-05-27T10:43:41.991Z,25.75
2017-05-27T10:44:51.315Z,25.6
2017-05-27T10:46:00.214Z,25.54
2017-05-27T10:47:09.442Z,25.79
2017-05-27T10:48:18.342Z,25.8
2017-05-27T10:49:27.237Z,25.92
2017-05-27T10:50:36.513Z,26.02
2017-05-27T10:51:45.741Z,26.2
2017-05-27T10:52:54.963Z,26.32
2017-05-27T10:54:04.200Z,26.28
2017-05-27T10:55:13.097Z,26.15
2017-05-27T10:56:22.108Z,26.13
2017-05-27T10:57:31.007Z,26.25
2017-05-27T10:58:39.906Z,26.3
2017-05-27T10:59:48.805Z,26.33
2017-05-27T11:00:57.703Z,26.48
2017-05-27T11:02:06.609Z,26.67
2017-05-27T11:03:15.511Z,26.67
2017-05-27T11:04:24.417Z,26.69
2017-05-27T11:05:33.640Z,26.76
2017-05-27T11:06:42.539Z,26.8
2017-05-27T11:07:51.740Z,26.76
2017-05-27T11:09:00.639Z,26.92
2017-05-27T11:10:09.541Z,26.97
2017-05-27T11:11:18.439Z,27
2017-05-27T11:12:27.674Z,26.91
2017-05-27T11:13:37.063Z,26.87
2017-05-27T11:14:45.960Z,26.92
2017-05-27T11:15:54.866Z,27.03
2017-05-27T11:17:04.089Z,27.09
2017-05-27T11:18:12.991Z,26.91
2017-05-27T11:19:22.203Z,26.97
2017-05-27T11:20:31.103Z,26.88
2017-05-27T11:21:40.333Z,27.21
2017-05-27T11:22:49.257Z,27.31
2017-05-27T11:23:58.803Z,27.39
2017-05-27T11:25:07.929Z,27.44
2017-05-27T11:26:17.153Z,27.25
2017-05-27T11:27:26.381Z,27.34
2017-05-27T11:28:35.282Z,27.27
2017-05-27T11:29:44.561Z,27.44
2017-05-27T11:30:53.560Z,27.69
2017-05-27T11:32:02.462Z,27.9
2017-05-27T11:33:11.688Z,27.82
2017-05-27T11:34:20.595Z,27.94
2017-05-27T11:35:29.852Z,28
2017-05-27T11:36:38.903Z,28.17
2017-05-27T11:37:48.452Z,28.21
2017-05-27T11:38:57.351Z,28.14
2017-05-27T11:40:06.315Z,28.19
2017-05-27T11:41:15.215Z,28.06
2017-05-27T11:42:24.317Z,28.07
2017-05-27T11:43:33.219Z,27.97
2017-05-27T11:44:42.443Z,28.03
2017-05-27T11:45:51.346Z,28
2017-05-27T11:47:00.251Z,28.06
2017-05-27T11:48:09.301Z,27.99
2017-05-27T11:49:18.205Z,28.07
2017-05-27T11:50:27.766Z,28.12
2017-05-27T11:51:36.996Z,28.19
2017-05-27T11:52:46.546Z,28.3
2017-05-27T11:53:55.498Z,28.43
2017-05-27T11:55:04.719Z,28.48
2017-05-27T11:56:13.625Z,28.46
2017-05-27T11:57:23.177Z,28.73
2017-05-27T11:58:32.083Z,28.76
2017-05-27T11:59:41.138Z,28.77
2017-05-27T12:00:50.043Z,28.68
2017-05-27T12:01:59.269Z,28.49
2017-05-27T12:03:08.175Z,28.46
2017-05-27T12:04:17.084Z,28.54
2017-05-27T12:05:26.563Z,28.73
2017-05-27T12:06:35.794Z,28.74
2017-05-27T12:07:44.701Z,28.76
2017-05-27T12:08:53.611Z,28.78
2017-05-27T12:10:02.846Z,28.88
2017-05-27T12:11:11.752Z,28.78
2017-05-27T12:12:20.989Z,28.8
2017-05-27T12:13:30.229Z,28.77
2017-05-27T12:14:39.553Z,28.86
2017-05-27T12:15:48.786Z,29.14
2017-05-27T12:16:58.022Z,29.12
2017-05-27T12:18:07.253Z,29.15
2017-05-27T12:19:16.485Z,29.14
2017-05-27T12:20:25.394Z,29.11
2017-05-27T12:21:34.308Z,29.11
2017-05-27T12:22:43.318Z,29.3
2017-05-27T12:23:52.232Z,29.33
2017-05-27T12:25:01.140Z,29.3
2017-05-27T12:26:10.057Z,29.45
2017-05-27T12:27:18.966Z,29.48
2017-05-27T12:28:27.877Z,29.64
2017-05-27T12:29:36.793Z,29.78
2017-05-27T12:30:45.705Z,29.78
2017-05-27T12:31:54.616Z,29.63
2017-05-27T12:33:03.531Z,29.57
2017-05-27T12:34:12.596Z,29.53
2017-05-27T12:35:21.513Z,29.6
2017-05-27T12:36:30.426Z,29.58
2017-05-27T12:37:39.339Z,29.58
2017-05-27T12:38:48.254Z,29.8
2017-05-27T12:39:57.587Z,29.63
2017-05-27T12:41:06.827Z,29.46
2017-05-27T12:42:16.386Z,29.36
2017-05-27T12:43:25.297Z,29.52
2017-05-27T12:44:34.223Z,29.78
2017-05-27T12:45:43.396Z,29.86
2017-05-27T12:46:52.964Z,29.92
2017-05-27T12:48:01.877Z,29.92
2017-05-27T12:49:11.116Z,29.92
2017-05-27T12:50:20.402Z,30.16
2017-05-27T12:51:29.741Z,30.27
2017-05-27T12:52:38.993Z,30.45
2017-05-27T12:53:47.906Z,30.54
2017-05-27T12:54:57.142Z,30.38
2017-05-27T12:56:06.387Z,30.64
2017-05-27T12:57:15.451Z,30.51
2017-05-27T12:58:24.368Z,30.65
2017-05-27T12:59:33.300Z,30.55
2017-05-27T13:00:42.251Z,30.47
2017-05-27T13:01:51.165Z,30.45
2017-05-27T13:03:00.415Z,30.46
2017-05-27T13:04:09.331Z,30.31
2017-05-27T13:05:18.244Z,30.61
2017-05-27T13:06:27.159Z,30.77
2017-05-27T13:07:36.118Z,30.97
2017-05-27T13:08:45.137Z,31.02
2017-05-27T13:09:54.380Z,30.91
2017-05-27T13:11:03.301Z,30.72
2017-05-27T13:12:12.219Z,30.64
2017-05-27T13:13:21.458Z,30.6
2017-05-27T13:14:30.525Z,30.67
2017-05-27T13:15:39.777Z,30.77
2017-05-27T13:16:49.019Z,30.53
2017-05-27T13:17:58.581Z,30.55
2017-05-27T13:19:07.497Z,30.42
2017-05-27T13:20:17.310Z,30.61
2017-05-27T13:21:26.551Z,30.54
2017-05-27T13:22:35.470Z,30.43
2017-05-27T13:23:44.389Z,30.53
2017-05-27T13:24:53.307Z,30.69
2017-05-27T13:26:02.225Z,30.99
2017-05-27T13:27:11.141Z,30.97
2017-05-27T13:28:20.380Z,30.92
2017-05-27T13:29:29.304Z,30.8
2017-05-27T13:30:38.222Z,30.82
2017-05-27T13:31:47.843Z,30.99
2017-05-27T13:32:57.088Z,31.28
2017-05-27T13:34:06.657Z,31.46
2017-05-27T13:35:15.900Z,31.35
2017-05-27T13:36:25.141Z,31.07
2017-05-27T13:37:34.207Z,31.36
2017-05-27T13:38:43.123Z,31.7
2017-05-27T13:39:52.363Z,31.69
2017-05-27T13:41:01.282Z,31.5
2017-05-27T13:42:10.521Z,31.44
2017-05-27T13:43:19.491Z,31.43
2017-05-27T13:44:28.415Z,31.25
2017-05-27T13:45:37.661Z,31.48
2017-05-27T13:46:46.579Z,31.56
2017-05-27T13:47:55.821Z,31.54
2017-05-27T13:49:05.220Z,31.53
2017-05-27T13:50:14.467Z,31.85
2017-05-27T13:51:23.711Z,31.99
2017-05-27T13:52:32.634Z,32.04
2017-05-27T13:53:41.553Z,32.33
2017-05-27T13:54:50.622Z,32.43
2017-05-27T13:55:59.552Z,32.7
2017-05-27T13:57:09.122Z,32.55
2017-05-27T13:58:18.042Z,32.51
2017-05-27T13:59:26.959Z,32.87
2017-05-27T14:00:36.032Z,32.84
2017-05-27T14:01:45.274Z,32.85
2017-05-27T14:02:54.192Z,32.97
2017-05-27T14:04:03.109Z,33.19
2017-05-27T14:05:12.029Z,33.06
2017-05-27T14:06:21.383Z,33.12
2017-05-27T14:07:30.311Z,33.31
2017-05-27T14:08:39.554Z,33.63
2017-05-27T14:09:48.798Z,33.66
2017-05-27T14:10:57.724Z,33.22
2017-05-27T14:12:07.120Z,33.07
2017-05-27T14:13:16.757Z,33.14
2017-05-27T14:14:25.677Z,33.37
2017-05-27T14:15:34.924Z,33.34
2017-05-27T14:16:44.170Z,33.09
2017-05-27T14:17:53.740Z,33.15
2017-05-27T14:19:03.000Z,33.47
2017-05-27T14:20:11.921Z,33.45
2017-05-27T14:21:21.169Z,33.72
2017-05-27T14:22:30.804Z,33.59
2017-05-27T14:23:40.154Z,33.5
2017-05-27T14:24:49.408Z,33.59
2017-05-27T14:25:58.975Z,33.03
2017-05-27T14:27:08.223Z,33.19
2017-05-27T14:28:17.794Z,33.07
2017-05-27T14:29:26.867Z,33.15
2017-05-27T14:30:36.115Z,33.54
2017-05-27T14:31:45.361Z,33.22
2017-05-27T14:32:54.280Z,33.06
2017-05-27T14:34:03.199Z,33.18
2017-05-27T14:35:12.270Z,33.09
2017-05-27T14:36:21.514Z,33.45
2017-05-27T14:37:30.436Z,33.44
2017-05-27T14:38:39.363Z,33.57
2017-05-27T14:39:48.612Z,33.44
2017-05-27T14:40:57.684Z,33.23
2017-05-27T14:42:07.255Z,33.19
2017-05-27T14:43:16.190Z,33.06
2017-05-27T14:44:25.437Z,33.51
2017-05-27T14:45:34.365Z,33.57
2017-05-27T14:46:43.344Z,33.5
2017-05-27T14:47:52.914Z,33.56
2017-05-27T14:49:02.484Z,33.79
2017-05-27T14:50:11.409Z,33.82
2017-05-27T14:51:20.706Z,33.81
2017-05-27T14:52:29.679Z,33.63
2017-05-27T14:53:38.602Z,33.98
2017-05-27T14:54:48.502Z,34.22